Saylorsburg, Pennsylvania
Current Conditions -  °F | °C
As of 5:53 PM on Wednesday 17 Dec 2014 (Local Time) from KMPO Reporting Station
Scattered Clouds Scattered Clouds  
Wind Chill: 23°   Ceiling: Unl
Heat Index: 34°   Visibility: 10mi
Dew Point: 29°   Wind: 20mph
Humidity: 82%   Direction: 290°WNW
Pressure: 29.83"   Gusts: 28mph
Location:  40.9°N, 75.32°W
Report Text: KMPO 172253Z AUTO 29017G24KT 10SM SCT043 01/M02 A2983 RMK AO2 PK WND 28029/2237 RAE03UPB03E15SNB15E16 SLP118 P0000 T00111017
Loading
Personal Weather Stations






























Interactive Weather Map New forecast layout! Learn more

10-Day Weather Forecast

Advertisements
Track Severe Weather on mobile